Portada
METAR-TAF:

METAR-TAF

Aeroports :

Waseca, Minnesota, Estats Units d'Amèrica

Waseca Municipal Airport

latitud: 44-04-24N, longitud: 093-33-11W, altitud: 343 m

Observació

L'informe es va fer fa 15 hores i 53 minuts, a les 15:15 UTC
Vent 6 kt del Oest
Temperatura -7°C
Humitat 93%
Pressió 1013 hPa
Visibilitat: 16.1 km
Cel cobert a una alçada de 600 ft

METAR: KACQ 201515Z AUTO 28006KT 10SM OVC006 M07/M08 A2991 RMK AO2

Hora: 01:08 (07:08 UTC)


TAF: manca

Observacions i pronòstics meteorològics de més de 4000 aeroports (METAR i TAF).

Les estacions disponibles són els punts grocs i vermells al mapa.

Posi el ratolí al punt desitjat per veure el nom de l'estació.

Feu clic per veure les observacions i els pronòstics meteorològics.

Per canviar el mapa: feu clic els botons verds amb una creu de color negre per apropar; al botó verd amb un guió per allunyar la imatge; o en les fletxes verdes per a mapes adjacents.


METAR-TAF: